^^
Saratoga-Weather Station Historical Data
Daily Summary for February 8, 2021 Units:  Metric    English   Both
Daily Weekly Monthly Yearly Custom
  High: Low: Average:
Temperature: 6.9 °C 4.4 °C 6 °C
Dew Point: 5.7 °C 3.1 °C 4.6 °C
Humidity: 95% 87% 91%
Wind Speed: 11.1km/h 0km/h 2.6km/h
Wind Gust: 25.7km/h - -
Wind- - SW
Pressure: 998.6 hPa 996.3 hPa -
Precipitation: 0.2 mm    
Historical Graphs
 
 
Tabular Data for February 8, 2021
Time Temperature Dew Point Pressure Wind Wind Speed Wind Gust Humidity Rainfall Rate (Hourly) solar
00:03 4.4 °C 3.5 °C 996.6 hPa ENE 1.4 km/h 11.3 km/h 94% 0.8 mm 0 W/m2
00:08 4.6 °C 3.7 °C 996.6 hPa ENE 1.4 km/h 6.4 km/h 94% 1.0 mm 0 W/m2
00:13 4.7 °C 4 °C 996.6 hPa East 3.2 km/h 4.8 km/h 95% 1.0 mm 0 W/m2
00:18 4.8 °C 4.1 °C 996.3 hPa ENE 3.2 km/h 25.7 km/h 95% 0.8 mm 0 W/m2
00:23 5.1 °C 4.4 °C 996.3 hPa East 11.1 km/h 11.3 km/h 95% 0.5 mm 0 W/m2
00:28 5.3 °C 4.6 °C 996.3 hPa North 3.2 km/h 25.7 km/h 95% 0.5 mm 0 W/m2
00:33 5.6 °C 4.9 °C 996.3 hPa NNW 4.7 km/h 11.3 km/h 95% 0.5 mm 0 W/m2
00:38 5.8 °C 5.1 °C 996.3 hPa NE 3.2 km/h 12.9 km/h 95% 0.5 mm 0 W/m2
00:43 5.9 °C 5 °C 996.3 hPa ENE 6.4 km/h 16.1 km/h 94% 0.5 mm 0 W/m2
00:48 6.1 °C 5.2 °C 996.3 hPa NW 1.4 km/h 8 km/h 94% 0.5 mm 0 W/m2
00:53 6.2 °C 5.3 °C 996.3 hPa WNW 3.2 km/h 12.9 km/h 94% 0.2 mm 0 W/m2
00:58 6.3 °C 5.3 °C 996.6 hPa NW 1.4 km/h 6.4 km/h 93% 0.2 mm 0 W/m2
01:03 6.4 °C 5.4 °C 996.6 hPa WNW 1.4 km/h 8 km/h 93% 0.2 mm 0 W/m2
01:08 6.4 °C 5.4 °C 996.6 hPa NNE 4.7 km/h 8 km/h 93% 0.0 mm 0 W/m2
01:13 6.6 °C 5.5 °C 996.6 hPa South 11.1 km/h 11.3 km/h 93% 0.0 mm 0 W/m2
01:18 6.7 °C 5.5 °C 997.0 hPa NNW 4.7 km/h 12.9 km/h 92% 0.0 mm 0 W/m2
01:23 6.7 °C 5.5 °C 996.6 hPa NNE 6.4 km/h 8 km/h 92% 0.0 mm 0 W/m2
01:28 6.7 °C 5.5 °C 996.6 hPa NW 3.2 km/h 14.5 km/h 92% 0.0 mm 0 W/m2
01:33 6.7 °C 5.5 °C 996.6 hPa SW 1.4 km/h 14.5 km/h 92% 0.0 mm 0 W/m2
01:38 6.7 °C 5.5 °C 996.3 hPa NNW 1.4 km/h 8 km/h 92% 0.0 mm 0 W/m2
01:43 6.6 °C 5.4 °C 996.3 hPa NW 3.2 km/h 14.5 km/h 92% 0.0 mm 0 W/m2
01:48 6.6 °C 5.4 °C 996.3 hPa NE 1.4 km/h 3.2 km/h 92% 0.0 mm 0 W/m2
01:53 6.6 °C 5.4 °C 996.6 hPa North 3.2 km/h 4.8 km/h 92% 0.0 mm 0 W/m2
01:58 6.5 °C 5.3 °C 996.6 hPa Calm   8 km/h 92% 0.0 mm 0 W/m2
02:03 6.6 °C 5.4 °C 996.6 hPa North 6.4 km/h 11.3 km/h 92% 0.0 mm 0 W/m2
02:08 6.6 °C 5.4 °C 996.6 hPa WNW 4.7 km/h 6.4 km/h 92% 0.0 mm 0 W/m2
02:13 6.6 °C 5.4 °C 996.6 hPa NNW 4.7 km/h 4.8 km/h 92% 0.0 mm 0 W/m2
02:18 6.6 °C 5.4 °C 996.6 hPa NNW 1.4 km/h 4.8 km/h 92% 0.0 mm 0 W/m2
02:23 6.6 °C 5.4 °C 996.6 hPa Calm   3.2 km/h 92% 0.0 mm 0 W/m2
02:28 6.6 °C 5.4 °C 996.6 hPa NE 1.4 km/h 3.2 km/h 92% 0.0 mm 0 W/m2
02:33 6.6 °C 5.4 °C 997.0 hPa NNE 1.4 km/h 8 km/h 92% 0.0 mm 0 W/m2
02:38 6.7 °C 5.6 °C 997.0 hPa NE 3.2 km/h 11.3 km/h 93% 0.0 mm 0 W/m2
02:43 6.7 °C 5.6 °C 997.0 hPa North 3.2 km/h 4.8 km/h 93% 0.0 mm 0 W/m2
02:48 6.7 °C 5.6 °C 997.0 hPa North 3.2 km/h 8 km/h 93% 0.0 mm 0 W/m2
02:53 6.7 °C 5.6 °C 997.0 hPa North 4.7 km/h 6.4 km/h 93% 0.0 mm 0 W/m2
02:58 6.7 °C 5.6 °C 997.0 hPa Calm   8 km/h 93% 0.0 mm 0 W/m2
03:03 6.7 °C 5.6 °C 997.0 hPa NW 4.7 km/h 4.8 km/h 93% 0.0 mm 0 W/m2
03:08 6.8 °C 5.7 °C 997.0 hPa NNE 3.2 km/h 6.4 km/h 93% 0.0 mm 0 W/m2
03:13 6.8 °C 5.7 °C 997.0 hPa West 1.4 km/h 4.8 km/h 93% 0.0 mm 0 W/m2
03:18 6.9 °C 5.7 °C 997.0 hPa NNE 1.4 km/h 6.4 km/h 92% 0.0 mm 0 W/m2
03:23 6.9 °C 5.7 °C 997.0 hPa ESE 4.7 km/h 6.4 km/h 92% 0.0 mm 0 W/m2
03:28 6.9 °C 5.7 °C 997.0 hPa ENE 3.2 km/h 4.8 km/h 92% 0.0 mm 0 W/m2
03:33 6.9 °C 5.7 °C 997.0 hPa North 4.7 km/h 9.7 km/h 92% 0.0 mm 0 W/m2
03:38 6.9 °C 5.7 °C 997.0 hPa NW 3.2 km/h 4.8 km/h 92% 0.0 mm 0 W/m2
03:43 6.9 °C 5.7 °C 997.0 hPa East 3.2 km/h 6.4 km/h 92% 0.0 mm 0 W/m2
03:48 6.9 °C 5.7 °C 997.0 hPa ENE 3.2 km/h 6.4 km/h 92% 0.0 mm 0 W/m2
03:53 6.9 °C 5.7 °C 997.0 hPa WNW 1.4 km/h 11.3 km/h 92% 0.0 mm 0 W/m2
03:58 6.9 °C 5.7 °C 997.0 hPa WNW 1.4 km/h 3.2 km/h 92% 0.0 mm 0 W/m2
04:03 6.9 °C 5.7 °C 997.0 hPa WNW 6.4 km/h 9.7 km/h 92% 0.0 mm 0 W/m2
04:08 6.9 °C 5.7 °C 997.0 hPa West 3.2 km/h 6.4 km/h 92% 0.0 mm 0 W/m2
04:13 6.8 °C 5.6 °C 997.3 hPa Calm   4.8 km/h 92% 0.0 mm 0 W/m2
04:18 6.8 °C 5.6 °C 997.3 hPa NNE 4.7 km/h 8 km/h 92% 0.0 mm 0 W/m2
04:23 6.8 °C 5.6 °C 997.0 hPa West 4.7 km/h 4.8 km/h 92% 0.0 mm 0 W/m2
04:28 6.8 °C 5.6 °C 997.3 hPa Calm   8 km/h 92% 0.0 mm 0 W/m2
04:33 6.7 °C 5.3 °C 997.3 hPa Calm   11.3 km/h 91% 0.0 mm 0 W/m2
04:38 6.7 °C 5.3 °C 997.3 hPa Calm   3.2 km/h 91% 0.0 mm 0 W/m2
04:43 6.6 °C 5.2 °C 997.3 hPa NW 4.7 km/h 8 km/h 91% 0.0 mm 0 W/m2
04:49 6.6 °C 5.2 °C 997.6 hPa NNW 1.4 km/h 4.8 km/h 91% 0.0 mm 0 W/m2
04:54 6.6 °C 5.2 °C 997.6 hPa West 6.4 km/h 9.7 km/h 91% 0.0 mm 0 W/m2
04:59 6.6 °C 5.2 °C 997.6 hPa Calm   4.8 km/h 91% 0.0 mm 0 W/m2
05:04 6.6 °C 5.2 °C 997.6 hPa Calm   3.2 km/h 91% 0.0 mm 0 W/m2
05:09 6.5 °C 5 °C 997.6 hPa NW 6.4 km/h 9.7 km/h 90% 0.0 mm 0 W/m2
05:14 6.4 °C 4.9 °C 997.6 hPa Calm   1.6 km/h 90% 0.0 mm 0 W/m2
05:19 6.4 °C 4.9 °C 997.6 hPa WNW 4.7 km/h 4.8 km/h 90% 0.0 mm 0 W/m2
05:24 6.4 °C 4.9 °C 997.6 hPa West 6.4 km/h 6.4 km/h 90% 0.0 mm 0 W/m2
05:29 6.5 °C 4.8 °C 997.6 hPa WNW 1.4 km/h 9.7 km/h 89% 0.0 mm 0 W/m2
05:34 6.5 °C 4.8 °C 997.6 hPa West 3.2 km/h 8 km/h 89% 0.0 mm 0 W/m2
05:39 6.4 °C 4.7 °C 997.6 hPa WNW 6.4 km/h 9.7 km/h 89% 0.0 mm 0 W/m2
05:44 6.4 °C 4.7 °C 998.0 hPa NW 3.2 km/h 4.8 km/h 89% 0.0 mm 0 W/m2
05:49 6.4 °C 4.7 °C 997.6 hPa NW 4.7 km/h 6.4 km/h 89% 0.0 mm 0 W/m2
05:54 6.4 °C 4.6 °C 997.6 hPa NNW 4.7 km/h 9.7 km/h 88% 0.0 mm 0 W/m2
05:59 6.3 °C 4.5 °C 997.6 hPa NNW 7.9 km/h 12.9 km/h 88% 0.0 mm 0 W/m2
06:04 6.3 °C 4.5 °C 997.6 hPa Calm   6.4 km/h 88% 0.0 mm 0 W/m2
06:09 6.3 °C 4.5 °C 997.6 hPa WNW 4.7 km/h 11.3 km/h 88% 0.0 mm 0 W/m2
06:14 6.3 °C 4.5 °C 997.6 hPa NW 6.4 km/h 6.4 km/h 88% 0.0 mm 0 W/m2
06:19 6.2 °C 4.4 °C 997.3 hPa NW 1.4 km/h 6.4 km/h 88% 0.0 mm 0 W/m2
06:24 6.2 °C 4.4 °C 997.3 hPa WSW 3.2 km/h 4.8 km/h 88% 0.0 mm 0 W/m2
06:29 6.1 °C 4.3 °C 997.6 hPa Calm   9.7 km/h 88% 0.0 mm 0 W/m2
06:34 6.1 °C 4.3 °C 997.6 hPa Calm   3.2 km/h 88% 0.0 mm 0 W/m2
06:39 6 °C 4.3 °C 997.6 hPa WNW 1.4 km/h 9.7 km/h 89% 0.0 mm 0 W/m2
06:44 5.9 °C 4.2 °C 997.3 hPa NW 1.4 km/h 6.4 km/h 89% 0.0 mm 0 W/m2
06:49 5.9 °C 4.2 °C 997.6 hPa WNW 11.1 km/h 11.3 km/h 89% 0.0 mm 0 W/m2
06:54 5.9 °C 4.2 °C 997.6 hPa NW 6.4 km/h 8 km/h 89% 0.0 mm 0 W/m2
06:59 5.9 °C 4.2 °C 997.6 hPa NW 3.2 km/h 9.7 km/h 89% 0.0 mm 0 W/m2
07:04 5.9 °C 4.1 °C 997.6 hPa Calm   1.6 km/h 88% 0.0 mm 0 W/m2
07:09 5.8 °C 4 °C 997.6 hPa NW 1.4 km/h 3.2 km/h 88% 0.0 mm 0 W/m2
07:14 5.8 °C 4 °C 998.0 hPa Calm   14.5 km/h 88% 0.0 mm 0 W/m2
07:19 5.8 °C 4 °C 997.6 hPa Calm   6.4 km/h 88% 0.0 mm 0 W/m2
07:24 5.8 °C 4 °C 997.6 hPa West 6.4 km/h 14.5 km/h 88% 0.0 mm 0 W/m2
07:29 5.8 °C 3.8 °C 998.0 hPa WSW 1.4 km/h 4.8 km/h 87% 0.0 mm 0 W/m2
07:34 5.7 °C 3.7 °C 998.0 hPa NW 1.4 km/h 6.4 km/h 87% 0.0 mm 0 W/m2
07:39 5.7 °C 3.7 °C 997.6 hPa West 1.4 km/h 4.8 km/h 87% 0.0 mm 0 W/m2
07:44 5.7 °C 3.7 °C 997.6 hPa Calm   1.6 km/h 87% 0.0 mm 0 W/m2
07:49 5.6 °C 3.6 °C 998.0 hPa Calm   4.8 km/h 87% 0.0 mm 0 W/m2
07:54 5.4 °C 3.4 °C 998.0 hPa WNW 1.4 km/h 1.6 km/h 87% 0.0 mm 0 W/m2
07:59 5.3 °C 3.5 °C 998.3 hPa Calm     88% 0.0 mm 0 W/m2
08:04 5.2 °C 3.4 °C 998.0 hPa Calm   1.6 km/h 88% 0.0 mm 0 W/m2
08:09 5 °C 3.3 °C 998.0 hPa East 4.7 km/h 6.4 km/h 89% 0.0 mm 0 W/m2
08:14 4.9 °C 3.2 °C 998.0 hPa East 3.2 km/h 4.8 km/h 89% 0.0 mm 0 W/m2
08:19 5 °C 3.3 °C 998.0 hPa Calm   6.4 km/h 89% 0.0 mm 0 W/m2
08:24 4.9 °C 3.2 °C 998.0 hPa Calm     89% 0.0 mm 0 W/m2
08:29 4.8 °C 3.1 °C 998.0 hPa Calm     89% 0.0 mm 0 W/m2
08:34 4.7 °C 3.2 °C 998.0 hPa Calm   1.6 km/h 90% 0.0 mm 0 W/m2
08:39 4.7 °C 3.2 °C 998.3 hPa Calm     90% 0.0 mm 7 W/m2
08:44 4.6 °C 3.3 °C 998.0 hPa Calm     91% 0.0 mm 7 W/m2
08:49 4.5 °C 3.2 °C 998.3 hPa Calm     91% 0.0 mm 11 W/m2
08:54 4.4 °C 3.1 °C 998.3 hPa Calm   1.6 km/h 91% 0.0 mm 12 W/m2
08:59 4.4 °C 3.2 °C 998.3 hPa West 3.2 km/h 3.2 km/h 92% 0.0 mm 16 W/m2
09:04 4.6 °C 3.3 °C 998.0 hPa Calm     91% 0.0 mm 19 W/m2
09:09 4.6 °C 3.3 °C 998.0 hPa WNW 3.2 km/h 3.2 km/h 91% 0.0 mm 19 W/m2
09:14 4.6 °C 3.3 °C 998.3 hPa Calm   1.6 km/h 91% 0.0 mm 23 W/m2
09:19 4.7 °C 3.4 °C 998.3 hPa Calm     91% 0.0 mm 25 W/m2
09:24 4.7 °C 3.4 °C 998.6 hPa NE 1.4 km/h 4.8 km/h 91% 0.0 mm 26 W/m2
09:29 4.7 °C 3.2 °C 998.3 hPa ESE 1.4 km/h 3.2 km/h 90% 0.0 mm 28 W/m2
09:34 4.7 °C 3.4 °C 998.3 hPa Calm   3.2 km/h 91% 0.0 mm 35 W/m2
09:39 4.8 °C 3.3 °C 998.6 hPa Calm   3.2 km/h 90% 0.0 mm 39 W/m2
09:44 4.8 °C 3.3 °C 998.3 hPa ENE 4.7 km/h 4.8 km/h 90% 0.0 mm 42 W/m2
09:49 4.9 °C 3.4 °C 998.3 hPa Calm   3.2 km/h 90% 0.0 mm 44 W/m2
09:54 5 °C 3.5 °C 998.3 hPa Calm   3.2 km/h 90% 0.0 mm 47 W/m2
09:59 5.1 °C 3.4 °C 998.3 hPa ESE 1.4 km/h 3.2 km/h 89% 0.0 mm 47 W/m2
Juneau County Weather
Compliments of Weather Underground - 2 mb